Time;durP1;ratioP1;P1;durP2;ratioP2;P2;SDS_P1;SDS_P2;PMS_P1;PMS_P2;Temp;Humidity;BMP_temperature;BMP_pressure;BME280_temperature;BME280_humidity;BME280_pressure;Samples;Min_cycle;Max_cycle;Signal;HPM_P1;HPM_P2
2022/02/21 00:01:21;;;;;;;5.78;1.70;;;;;;;-142.43;100.00;63430.59;4972469;28;20132;-85
2022/02/21 00:03:48;;;;;;;3.60;1.92;;;;;;;-142.43;100.00;63430.59;4981915;28;20043;-85
2022/02/21 00:06:18;;;;;;;5.70;1.73;;;;;;;-142.43;100.00;63430.59;4985282;28;20075;-84
2022/02/21 00:08:45;;;;;;;5.25;2.05;;;;;;;-142.43;100.00;63430.59;4984916;28;20085;-82
2022/02/21 00:11:11;;;;;;;4.85;2.05;;;;;;;-142.43;100.00;63430.59;4975652;28;20111;-83
2022/02/21 00:13:38;;;;;;;7.03;2.35;;;;;;;-142.43;100.00;63430.59;4978595;28;20093;-84
2022/02/21 00:16:05;;;;;;;6.90;1.75;;;;;;;-142.43;100.00;63430.59;4977357;28;20054;-85
2022/02/21 00:18:32;;;;;;;6.95;2.15;;;;;;;-142.43;100.00;63430.59;4980896;28;20074;-84
2022/02/21 00:20:58;;;;;;;7.38;2.40;;;;;;;-142.43;100.00;63430.59;4980749;28;20071;-84
2022/02/21 00:23:26;;;;;;;6.18;2.00;;;;;;;-142.43;100.00;63430.59;4972010;28;20097;-85
2022/02/21 00:25:53;;;;;;;7.25;2.17;;;;;;;-142.43;100.00;63430.59;4968625;29;20106;-84
2022/02/21 00:28:21;;;;;;;8.68;2.75;;;;;;;-142.43;100.00;63430.59;4968286;29;20055;-83
2022/02/21 00:30:47;;;;;;;8.13;3.85;;;;;;;-142.43;100.00;63430.59;4970355;29;20504;-85
2022/02/21 00:33:14;;;;;;;7.57;2.42;;;;;;;-142.43;100.00;63430.59;4973765;29;20082;-83
2022/02/21 00:35:41;;;;;;;6.97;2.22;;;;;;;-142.43;100.00;63430.59;4973801;29;20047;-82
2022/02/21 00:38:07;;;;;;;6.57;2.60;;;;;;;-142.43;100.00;63430.59;4971804;29;20086;-83
2022/02/21 00:40:35;;;;;;;6.63;2.28;;;;;;;-142.43;100.00;63430.59;4968737;29;20082;-82
2022/02/21 00:43:02;;;;;;;10.95;2.70;;;;;;;-142.43;100.00;63430.59;4969614;29;20051;-84
2022/02/21 00:45:29;;;;;;;6.53;2.50;;;;;;;-142.43;100.00;63430.59;4968874;29;20522;-84
2022/02/21 00:47:55;;;;;;;10.52;2.78;;;;;;;-142.43;100.00;63430.59;4969747;29;20082;-83
2022/02/21 00:50:22;;;;;;;12.18;2.80;;;;;;;-142.43;100.00;63430.59;4968462;29;20051;-84
2022/02/21 00:52:49;;;;;;;8.25;2.95;;;;;;;-142.43;100.00;63430.59;4968446;29;20134;-85
2022/02/21 00:55:16;;;;;;;8.07;2.75;;;;;;;-142.43;100.00;63430.59;4974645;29;20039;-84
2022/02/21 00:57:44;;;;;;;7.80;2.70;;;;;;;-142.43;100.00;63430.59;4975940;29;20062;-84
2022/02/21 01:00:11;;;;;;;6.78;2.88;;;;;;;-142.43;100.00;63430.59;4968370;29;20047;-83
2022/02/21 01:02:38;;;;;;;7.13;2.78;;;;;;;-142.43;100.00;63430.59;4967965;29;20082;-83
2022/02/21 01:05:06;;;;;;;10.93;2.60;;;;;;;-142.43;100.00;63430.59;4968586;29;20115;-83
2022/02/21 01:07:32;;;;;;;7.07;2.90;;;;;;;-142.43;100.00;63430.59;4969020;29;20086;-82
2022/02/21 01:09:59;;;;;;;3.65;1.70;;;;;;;-142.43;100.00;63430.59;4969381;29;20116;-82
2022/02/21 01:12:26;;;;;;;5.97;1.67;;;;;;;-142.43;100.00;63430.59;4970722;29;20047;-83
2022/02/21 01:14:54;;;;;;;5.88;1.70;;;;;;;-142.43;100.00;63430.59;4971290;29;20078;-84
2022/02/21 01:17:22;;;;;;;2.67;1.65;;;;;;;-142.43;100.00;63430.59;4972077;29;20078;-83
2022/02/21 01:19:49;;;;;;;5.38;1.77;;;;;;;-142.43;100.00;63430.59;4971195;29;20054;-84
2022/02/21 01:22:16;;;;;;;7.47;2.35;;;;;;;-142.43;100.00;63430.59;4970305;28;20146;-83
2022/02/21 01:24:42;;;;;;;4.22;2.22;;;;;;;-142.43;100.00;63430.59;4968995;29;20082;-83
2022/02/21 01:27:09;;;;;;;7.57;2.30;;;;;;;-142.43;100.00;63430.59;4972011;28;20108;-84
2022/02/21 01:29:36;;;;;;;6.78;2.20;;;;;;;-142.43;100.00;63430.59;4973329;29;20122;-84
2022/02/21 01:32:05;;;;;;;9.18;2.60;;;;;;;-142.43;100.00;63430.59;4973259;29;20525;-85
2022/02/21 01:34:31;;;;;;;8.38;3.17;;;;;;;-142.43;100.00;63430.59;4973429;29;20115;-82
2022/02/21 01:36:58;;;;;;;6.68;2.65;;;;;;;-142.43;100.00;63430.59;4974920;29;20106;-84
2022/02/21 01:39:25;;;;;;;8.73;2.70;;;;;;;-142.43;100.00;63430.59;4974909;29;20106;-84
2022/02/21 01:41:51;;;;;;;6.30;3.35;;;;;;;-142.43;100.00;63430.59;4975946;29;20043;-84
2022/02/21 01:44:18;;;;;;;6.25;2.45;;;;;;;-142.43;100.00;63430.59;4976603;29;20054;-85
2022/02/21 01:46:45;;;;;;;10.50;2.63;;;;;;;-142.43;100.00;63430.59;4973620;29;20047;-83
2022/02/21 01:49:14;;;;;;;11.15;3.75;;;;;;;-142.43;100.00;63430.59;4972426;29;20074;-84
2022/02/21 01:51:41;;;;;;;10.10;2.97;;;;;;;-142.43;100.00;63430.59;4972995;28;20051;-83
2022/02/21 01:54:09;;;;;;;8.32;3.00;;;;;;;-142.43;100.00;63430.59;4972942;29;20075;-84
2022/02/21 01:56:36;;;;;;;10.23;3.33;;;;;;;-142.43;100.00;63430.59;4970870;29;20074;-83
2022/02/21 01:59:04;;;;;;;9.20;2.65;;;;;;;-142.43;100.00;63430.59;4970581;29;20103;-83
2022/02/21 02:01:31;;;;;;;11.55;2.83;;;;;;;-142.43;100.00;63430.59;4970199;29;20048;-84
2022/02/21 02:03:59;;;;;;;10.23;3.28;;;;;;;-142.43;100.00;63430.59;4970594;29;20082;-83
2022/02/21 02:06:28;;;;;;;10.63;3.00;;;;;;;-142.43;100.00;63430.59;4968950;29;20059;-83
2022/02/21 02:08:55;;;;;;;7.38;2.50;;;;;;;-142.43;100.00;63430.59;4971913;29;20235;-84
2022/02/21 02:11:22;;;;;;;9.43;2.60;;;;;;;-142.43;100.00;63430.59;4972727;29;20055;-83
2022/02/21 02:13:52;;;;;;;6.13;2.35;;;;;;;-142.43;100.00;63430.59;4972902;29;20090;-83
2022/02/21 02:16:19;;;;;;;8.73;2.83;;;;;;;-142.43;100.00;63430.59;4973976;29;20086;-83
2022/02/21 02:18:46;;;;;;;8.60;3.47;;;;;;;-142.43;100.00;63430.59;4972588;29;20093;-82
2022/02/21 02:21:20;;;;;;;9.75;3.03;;;;;;;-142.43;100.00;63430.59;4972620;29;20138;-82
2022/02/21 02:23:48;;;;;;;9.73;3.05;;;;;;;-142.43;100.00;63430.59;4966961;29;20059;-83
2022/02/21 02:26:16;;;;;;;9.32;3.20;;;;;;;-142.43;100.00;63430.59;4965674;29;20236;-83
2022/02/21 02:28:43;;;;;;;10.00;3.60;;;;;;;-142.43;100.00;63430.59;4965440;29;20086;-82
2022/02/21 02:31:10;;;;;;;10.23;2.83;;;;;;;-142.43;100.00;63430.59;4969395;29;20082;-83
2022/02/21 02:33:37;;;;;;;6.07;2.67;;;;;;;-142.43;100.00;63430.59;4967684;29;20066;-83
2022/02/21 02:36:04;;;;;;;7.05;2.72;;;;;;;-142.43;100.00;63430.59;4968582;29;20059;-83
2022/02/21 02:38:31;;;;;;;7.22;3.00;;;;;;;-142.43;100.00;63430.59;4967173;28;20074;-83
2022/02/21 02:40:59;;;;;;;14.32;3.50;;;;;;;-142.43;100.00;63430.59;4969290;29;20051;-84
2022/02/21 02:43:25;;;;;;;7.43;3.00;;;;;;;-142.43;100.00;63430.59;4989209;23;20113;-78
2022/02/21 02:45:52;;;;;;;9.02;3.17;;;;;;;-142.43;100.00;63430.59;4977624;28;20050;-78
2022/02/21 02:48:19;;;;;;;6.65;2.90;;;;;;;-142.43;100.00;63430.59;4976708;28;20059;-78
2022/02/21 02:50:46;;;;;;;3.95;2.10;;;;;;;-142.43;100.00;63430.59;4977191;28;20058;-78
2022/02/21 02:53:13;;;;;;;2.80;1.52;;;;;;;-142.43;100.00;63430.59;4977113;28;20105;-78
2022/02/21 02:55:40;;;;;;;5.20;1.98;;;;;;;-142.43;100.00;63430.59;4977300;28;20130;-79
2022/02/21 02:58:08;;;;;;;6.03;1.90;;;;;;;-142.43;100.00;63430.59;4976042;28;20154;-79
2022/02/21 03:00:35;;;;;;;5.43;2.30;;;;;;;-142.43;100.00;63430.59;4976923;28;20145;-79
2022/02/21 03:03:01;;;;;;;11.98;3.20;;;;;;;-142.43;100.00;63430.59;4978038;28;20130;-78
2022/02/21 03:05:28;;;;;;;5.68;2.17;;;;;;;-142.43;100.00;63430.59;4979337;28;20133;-79
2022/02/21 03:07:55;;;;;;;11.00;3.47;;;;;;;-142.43;100.00;63430.59;4979726;28;20086;-78
2022/02/21 03:10:21;;;;;;;8.52;3.28;;;;;;;-142.43;100.00;63430.59;4978696;28;20138;-78
2022/02/21 03:12:48;;;;;;;8.32;3.30;;;;;;;-142.43;100.00;63430.59;4979264;28;20114;-78
2022/02/21 03:15:16;;;;;;;9.15;3.45;;;;;;;-142.43;100.00;63430.59;4978929;28;20055;-78
2022/02/21 03:17:42;;;;;;;7.10;2.95;;;;;;;-142.43;100.00;63430.59;4978903;28;20461;-78
2022/02/21 03:20:10;;;;;;;8.60;2.97;;;;;;;-142.43;100.00;63430.59;4977481;28;20058;-78
2022/02/21 03:22:37;;;;;;;9.25;2.67;;;;;;;-142.43;100.00;63430.59;4978304;28;20636;-78
2022/02/21 03:25:04;;;;;;;11.85;2.88;;;;;;;-142.43;100.00;63430.59;4977724;28;20053;-78
2022/02/21 03:27:31;;;;;;;13.27;3.42;;;;;;;-142.43;100.00;63430.59;4978226;28;20137;-78
2022/02/21 03:29:57;;;;;;;9.95;3.95;;;;;;;-142.43;100.00;63430.59;4977912;28;20050;-79
2022/02/21 03:32:25;;;;;;;13.70;3.80;;;;;;;-142.43;100.00;63430.59;4977956;28;20130;-79
2022/02/21 03:34:52;;;;;;;8.02;3.42;;;;;;;-142.43;100.00;63430.59;4978180;28;20047;-79
2022/02/21 03:37:18;;;;;;;12.07;3.00;;;;;;;-142.43;100.00;63430.59;4979339;28;20046;-79
2022/02/21 03:39:45;;;;;;;9.30;3.28;;;;;;;-142.43;100.00;63430.59;4979600;28;20119;-78
2022/02/21 03:42:12;;;;;;;9.40;3.17;;;;;;;-142.43;100.00;63430.59;4979294;28;20051;-79
2022/02/21 03:44:38;;;;;;;8.73;3.65;;;;;;;-142.43;100.00;63430.59;4978624;28;20050;-78
2022/02/21 03:47:05;;;;;;;13.15;3.58;;;;;;;-142.43;100.00;63430.59;4977552;28;20047;-78
2022/02/21 03:49:33;;;;;;;12.82;3.75;;;;;;;-142.43;100.00;63430.59;4977022;28;20134;-78
2022/02/21 03:52:00;;;;;;;11.98;3.63;;;;;;;-142.43;100.00;63430.59;4977475;28;20050;-78
2022/02/21 03:54:27;;;;;;;12.05;3.97;;;;;;;-142.43;100.00;63430.59;4977611;28;20054;-78
2022/02/21 03:56:53;;;;;;;19.67;5.20;;;;;;;-142.43;100.00;63430.59;4978567;28;20133;-79
2022/02/21 03:59:20;;;;;;;7.70;2.28;;;;;;;-142.43;100.00;63430.59;4977551;28;20501;-79
2022/02/21 04:01:46;;;;;;;6.75;2.13;;;;;;;-142.43;100.00;63430.59;4976653;28;20054;-78
2022/02/21 04:04:13;;;;;;;5.13;2.22;;;;;;;-142.43;100.00;63430.59;4976888;28;20110;-78
2022/02/21 04:06:41;;;;;;;5.95;2.25;;;;;;;-142.43;100.00;63430.59;4975017;28;20050;-77
2022/02/21 04:09:08;;;;;;;10.65;4.05;;;;;;;-142.43;100.00;63430.59;4974028;28;20051;-78
2022/02/21 04:11:34;;;;;;;6.13;2.15;;;;;;;-142.43;100.00;63430.59;4975720;28;20057;-78
2022/02/21 04:14:01;;;;;;;3.95;2.22;;;;;;;-142.43;100.00;63430.59;4975479;28;20086;-78
2022/02/21 04:16:32;;;;;;;8.50;3.03;;;;;;;-142.43;100.00;63430.59;4976750;28;20508;-78
2022/02/21 04:18:59;;;;;;;7.50;2.03;;;;;;;-142.43;100.00;63430.59;4976428;28;20051;-79
2022/02/21 04:21:25;;;;;;;5.13;2.15;;;;;;;-142.43;100.00;63430.59;4978561;28;20106;-79
2022/02/21 04:23:53;;;;;;;5.70;2.47;;;;;;;-142.43;100.00;63430.59;4978091;28;20082;-78
2022/02/21 04:26:20;;;;;;;5.03;2.22;;;;;;;-142.43;100.00;63430.59;4977904;28;20053;-78
2022/02/21 04:28:46;;;;;;;8.20;2.75;;;;;;;-142.43;100.00;63430.59;4977865;28;20051;-78
2022/02/21 04:31:14;;;;;;;7.50;2.92;;;;;;;-142.43;100.00;63430.59;4979076;28;20133;-78
2022/02/21 04:33:41;;;;;;;5.40;2.78;;;;;;;-142.43;100.00;63430.59;4975191;28;20118;-77
2022/02/21 04:36:08;;;;;;;9.23;2.65;;;;;;;-142.43;100.00;63430.59;4975302;28;20053;-77
2022/02/21 04:38:34;;;;;;;7.38;2.90;;;;;;;-142.43;100.00;63430.59;4978487;28;20143;-78
2022/02/21 04:41:02;;;;;;;9.73;3.05;;;;;;;-142.43;100.00;63430.59;4982659;28;20054;-77
2022/02/21 04:43:29;;;;;;;9.73;3.55;;;;;;;-142.43;100.00;63430.59;4980831;28;20055;-76
2022/02/21 04:45:55;;;;;;;10.35;3.60;;;;;;;-142.43;100.00;63430.59;4977668;28;20043;-77
2022/02/21 04:48:22;;;;;;;10.20;3.20;;;;;;;-142.43;100.00;63430.59;4972994;28;20057;-76
2022/02/21 04:50:49;;;;;;;11.20;3.20;;;;;;;-142.43;100.00;63430.59;4973801;28;20142;-76
2022/02/21 04:53:16;;;;;;;9.52;3.92;;;;;;;-142.43;100.00;63430.59;4974570;28;20070;-77
2022/02/21 04:55:43;;;;;;;15.57;4.32;;;;;;;-142.43;100.00;63430.59;4973225;28;20043;-79
2022/02/21 04:58:11;;;;;;;14.18;3.33;;;;;;;-142.43;100.00;63430.59;4974143;28;20050;-76
2022/02/21 05:00:38;;;;;;;13.20;3.65;;;;;;;-142.43;100.00;63430.59;4974124;28;20061;-78
2022/02/21 05:03:04;;;;;;;11.07;3.63;;;;;;;-142.43;100.00;63430.59;4974174;28;20051;-77
2022/02/21 05:05:31;;;;;;;14.30;3.60;;;;;;;-142.43;100.00;63430.59;4974473;28;20525;-77
2022/02/21 05:07:58;;;;;;;14.23;3.80;;;;;;;-142.43;100.00;63430.59;4973425;28;20049;-77
2022/02/21 05:11:12;;;;;;;17.05;4.13;;;;;;;-142.43;100.00;63430.59;4974646;28;20082;-75
2022/02/21 05:18:43;;;;;;;9.73;3.45;;;;;;;-142.43;100.00;63430.59;4956427;29;20059;-79
2022/02/21 05:21:09;;;;;;;9.25;3.67;;;;;;;-142.43;100.00;63430.59;4959074;29;20035;-78
2022/02/21 05:23:36;;;;;;;16.15;3.78;;;;;;;-142.43;100.00;63430.59;4958662;28;20560;-79
2022/02/21 05:26:02;;;;;;;12.98;3.42;;;;;;;-142.43;100.00;63430.59;4958165;29;20432;-81
2022/02/21 05:28:29;;;;;;;12.88;3.42;;;;;;;-142.43;100.00;63430.59;4959779;29;20066;-80
2022/02/21 05:30:56;;;;;;;15.70;4.10;;;;;;;-142.43;100.00;63430.59;4961520;29;20051;-80
2022/02/21 05:33:22;;;;;;;13.77;3.80;;;;;;;-142.43;100.00;63430.59;4959207;28;20082;-81
2022/02/21 05:35:50;;;;;;;12.80;3.78;;;;;;;-142.43;100.00;63430.59;4959369;29;20534;-79
2022/02/21 05:38:17;;;;;;;17.67;3.83;;;;;;;-142.43;100.00;63430.59;4957949;29;20198;-80
2022/02/21 05:40:44;;;;;;;11.18;2.97;;;;;;;-142.43;100.00;63430.59;4961140;29;20063;-80
2022/02/21 05:43:10;;;;;;;8.98;3.90;;;;;;;-142.43;100.00;63430.59;4961525;28;20066;-80
2022/02/21 05:45:37;;;;;;;12.43;3.78;;;;;;;-142.43;100.00;63430.59;4961799;29;20138;-79
2022/02/21 05:48:04;;;;;;;9.45;3.97;;;;;;;-142.43;100.00;63430.59;4960836;29;20069;-80
2022/02/21 05:50:31;;;;;;;13.85;4.07;;;;;;;-142.43;100.00;63430.59;4962772;29;20055;-80
2022/02/21 05:52:59;;;;;;;14.10;3.97;;;;;;;-142.43;100.00;63430.59;4960684;28;20130;-80
2022/02/21 05:55:25;;;;;;;14.32;3.67;;;;;;;-142.43;100.00;63430.59;4959770;29;20450;-80
2022/02/21 05:57:56;;;;;;;16.27;3.88;;;;;;;-142.43;100.00;63430.59;4959103;29;20086;-79
2022/02/21 06:00:23;;;;;;;15.10;4.18;;;;;;;-142.43;100.00;63430.59;4959705;29;20131;-80
2022/02/21 06:02:49;;;;;;;12.98;3.67;;;;;;;-142.43;100.00;63430.59;4960022;28;20055;-80
2022/02/21 06:05:16;;;;;;;14.43;4.25;;;;;;;-142.43;100.00;63430.59;4960478;29;20115;-78
2022/02/21 06:07:43;;;;;;;10.18;3.40;;;;;;;-142.43;100.00;63430.59;4962222;29;20135;-79
2022/02/21 06:10:11;;;;;;;12.50;3.55;;;;;;;-142.43;100.00;63430.59;4962406;29;20131;-80
2022/02/21 06:12:38;;;;;;;14.68;3.60;;;;;;;-142.43;100.00;63430.59;4975003;28;20078;-81
2022/02/21 06:15:05;;;;;;;11.60;3.60;;;;;;;-142.43;100.00;63430.59;4981081;29;20035;-79
2022/02/21 06:17:32;;;;;;;15.00;4.85;;;;;;;-142.43;100.00;63430.59;4981617;28;20035;-79
2022/02/21 06:19:58;;;;;;;16.58;4.07;;;;;;;-142.43;100.00;63430.59;4972903;29;20086;-80
2022/02/21 06:22:25;;;;;;;13.65;4.18;;;;;;;-142.43;100.00;63430.59;4964638;28;20111;-79
2022/02/21 06:24:51;;;;;;;12.35;3.60;;;;;;;-142.43;100.00;63430.59;4964704;29;20142;-79
2022/02/21 06:27:19;;;;;;;10.48;3.53;;;;;;;-142.43;100.00;63430.59;4965560;29;20119;-79
2022/02/21 06:29:47;;;;;;;18.13;4.55;;;;;;;-142.43;100.00;63430.59;4964268;29;20111;-80
2022/02/21 06:32:13;;;;;;;11.60;3.80;;;;;;;-142.43;100.00;63430.59;4965450;28;20083;-80
2022/02/21 06:34:40;;;;;;;10.50;3.97;;;;;;;-142.43;100.00;63430.59;4965063;29;20086;-80
2022/02/21 06:37:06;;;;;;;9.60;3.92;;;;;;;-142.43;100.00;63430.59;4966004;29;20055;-79
2022/02/21 06:39:33;;;;;;;14.50;4.57;;;;;;;-142.43;100.00;63430.59;4966454;29;20142;-80
2022/02/21 06:42:00;;;;;;;11.75;4.78;;;;;;;-142.43;100.00;63430.59;4966531;28;20142;-82
2022/02/21 06:44:28;;;;;;;16.15;3.88;;;;;;;-142.43;100.00;63430.59;4966879;29;20133;-80
2022/02/21 06:46:54;;;;;;;15.10;4.00;;;;;;;-142.43;100.00;63430.59;4968077;29;20094;-80
2022/02/21 06:49:21;;;;;;;16.73;4.43;;;;;;;-142.43;100.00;63430.59;4969607;29;20085;-81
2022/02/21 06:51:47;;;;;;;12.27;4.10;;;;;;;-142.43;100.00;63430.59;4966992;28;20082;-80
2022/02/21 06:54:14;;;;;;;17.90;4.28;;;;;;;-142.43;100.00;63430.59;4965191;29;20427;-79
2022/02/21 06:56:41;;;;;;;14.98;5.22;;;;;;;-142.43;100.00;63430.59;4965659;29;20078;-79
2022/02/21 06:59:07;;;;;;;22.98;4.63;;;;;;;-142.43;100.00;63430.59;4965171;29;20105;-79
2022/02/21 07:01:35;;;;;;;15.70;4.00;;;;;;;-142.43;100.00;63430.59;4967888;28;20122;-79
2022/02/21 07:04:02;;;;;;;13.73;4.22;;;;;;;-142.43;100.00;63430.59;4968527;29;20115;-79
2022/02/21 07:06:28;;;;;;;15.85;4.03;;;;;;;-142.43;100.00;63430.59;4965990;29;20110;-79
2022/02/21 07:08:57;;;;;;;18.48;4.25;;;;;;;-142.43;100.00;63430.59;4967874;29;20086;-81
2022/02/21 07:11:24;;;;;;;13.55;4.07;;;;;;;-142.43;100.00;63430.59;4969750;29;20059;-80
2022/02/21 07:13:50;;;;;;;17.30;4.60;;;;;;;-142.43;100.00;63430.59;4960258;28;20061;-80
2022/02/21 07:16:17;;;;;;;16.73;4.68;;;;;;;-142.43;100.00;63430.59;4964054;29;20106;-80
2022/02/21 07:18:45;;;;;;;11.82;3.60;;;;;;;-142.43;100.00;63430.59;4964153;29;20083;-80
2022/02/21 07:21:11;;;;;;;11.70;3.58;;;;;;;-142.43;100.00;63430.59;4966493;29;20126;-80
2022/02/21 07:23:38;;;;;;;11.35;3.45;;;;;;;-142.43;100.00;63430.59;4954895;28;20174;-79
2022/02/21 07:26:05;;;;;;;15.80;4.25;;;;;;;-142.43;100.00;63430.59;4945851;29;20112;-80
2022/02/21 07:28:32;;;;;;;14.23;4.25;;;;;;;-142.43;100.00;63430.59;4946598;29;20116;-80
2022/02/21 07:30:59;;;;;;;14.00;3.78;;;;;;;-142.43;100.00;63430.59;4945329;29;20467;-80
2022/02/21 07:33:28;;;;;;;20.20;4.35;;;;;;;-142.43;100.00;63430.59;4947745;29;20167;-80
2022/02/21 07:35:56;;;;;;;13.95;3.72;;;;;;;-142.43;100.00;63430.59;4964300;29;20055;-81
2022/02/21 07:38:23;;;;;;;10.70;3.65;;;;;;;-142.43;100.00;63430.59;4965128;29;20070;-80
2022/02/21 07:40:51;;;;;;;12.32;3.15;;;;;;;-142.43;100.00;63430.59;4965695;29;20494;-80
2022/02/21 07:43:18;;;;;;;13.50;3.65;;;;;;;-142.43;100.00;63430.59;4964408;29;20524;-81
2022/02/21 07:45:44;;;;;;;10.73;3.05;;;;;;;-142.43;100.00;63430.59;4965607;29;20131;-81
2022/02/21 07:48:11;;;;;;;8.65;3.30;;;;;;;-142.43;100.00;63430.59;4959363;28;20095;-79
2022/02/21 07:50:38;;;;;;;9.02;3.42;;;;;;;-142.43;100.00;63430.59;4961406;29;20067;-80
2022/02/21 07:53:07;;;;;;;13.90;3.47;;;;;;;-142.43;100.00;63430.59;4963630;29;20458;-80
2022/02/21 07:55:34;;;;;;;10.55;3.75;;;;;;;-142.43;100.00;63430.59;4963777;29;20073;-80
2022/02/21 07:58:01;;;;;;;8.68;3.13;;;;;;;-142.43;100.00;63430.59;4963376;29;20134;-81
2022/02/21 08:00:28;;;;;;;9.02;3.05;;;;;;;-142.43;100.00;63430.59;4962659;29;20552;-80
2022/02/21 08:02:55;;;;;;;9.32;3.53;;;;;;;-142.43;100.00;63430.59;4960300;28;20130;-79
2022/02/21 08:05:22;;;;;;;11.57;3.40;;;;;;;-142.43;100.00;63430.59;4965814;29;20046;-79
2022/02/21 08:07:52;;;;;;;7.45;3.10;;;;;;;-142.43;100.00;63430.59;4954260;29;20047;-80
2022/02/21 08:10:20;;;;;;;8.20;3.72;;;;;;;-142.43;100.00;63430.59;4972732;29;20058;-80
2022/02/21 08:12:48;;;;;;;18.30;3.65;;;;;;;-142.43;100.00;63430.59;4954901;29;20114;-79
2022/02/21 08:15:15;;;;;;;11.63;3.60;;;;;;;-142.43;100.00;63430.59;4971770;29;20066;-79
2022/02/21 08:17:43;;;;;;;15.50;3.78;;;;;;;-142.43;100.00;63430.59;4972485;29;20106;-81
2022/02/21 08:20:11;;;;;;;14.07;3.85;;;;;;;-142.43;100.00;63430.59;4971781;29;20050;-80
2022/02/21 08:22:38;;;;;;;19.88;3.45;;;;;;;-142.43;100.00;63430.59;4972468;28;20055;-80
2022/02/21 08:25:05;;;;;;;9.43;3.33;;;;;;;-142.43;100.00;63430.59;4971423;29;20553;-79
2022/02/21 08:27:35;;;;;;;12.98;3.33;;;;;;;-142.43;100.00;63430.59;4969815;29;20074;-78
2022/02/21 08:30:01;;;;;;;14.15;3.75;;;;;;;-142.43;100.00;63430.59;4966648;29;20051;-80
2022/02/21 08:32:28;;;;;;;9.35;3.65;;;;;;;-142.43;100.00;63430.59;4966580;28;20079;-79
2022/02/21 08:34:55;;;;;;;9.90;3.30;;;;;;;-142.43;100.00;63430.59;4967395;29;20058;-80
2022/02/21 08:37:21;;;;;;;12.88;3.35;;;;;;;-142.43;100.00;63430.59;4966765;28;20058;-79
2022/02/21 08:39:48;;;;;;;9.63;2.70;;;;;;;-142.43;100.00;63430.59;4964832;29;20120;-79
2022/02/21 08:42:14;;;;;;;13.38;4.13;;;;;;;-142.43;100.00;63430.59;4964764;28;20047;-80
2022/02/21 08:44:42;;;;;;;12.23;3.50;;;;;;;-142.43;100.00;63430.59;4962126;29;20055;-80
2022/02/21 08:47:09;;;;;;;11.27;3.45;;;;;;;-142.43;100.00;63430.59;4993160;23;20043;-82
2022/02/21 08:49:36;;;;;;;9.30;3.20;;;;;;;-142.43;100.00;63430.59;4982616;28;20141;-82
2022/02/21 08:52:02;;;;;;;7.53;4.13;;;;;;;-142.43;100.00;63430.59;4980383;28;20051;-82
2022/02/21 08:54:29;;;;;;;12.00;4.00;;;;;;;-142.43;100.00;63430.59;4981610;28;20541;-82
2022/02/21 08:56:56;;;;;;;14.52;3.25;;;;;;;-142.43;100.00;63430.59;4977664;28;20043;-82
2022/02/21 08:59:22;;;;;;;13.70;4.07;;;;;;;-142.43;100.00;63430.59;4971467;28;20073;-82
2022/02/21 09:01:50;;;;;;;10.75;3.28;;;;;;;-142.43;100.00;63430.59;4969175;28;20135;-83
2022/02/21 09:04:17;;;;;;;12.20;3.30;;;;;;;-142.43;100.00;63430.59;4972348;28;20055;-83
2022/02/21 09:06:43;;;;;;;9.13;3.60;;;;;;;-142.43;100.00;63430.59;4956667;28;20415;-82
2022/02/21 09:09:10;;;;;;;11.75;3.00;;;;;;;-142.43;100.00;63430.59;4958339;29;20170;-84
2022/02/21 09:11:37;;;;;;;9.13;3.40;;;;;;;-142.43;100.00;63430.59;4952749;29;20059;-82
2022/02/21 09:14:03;;;;;;;11.55;3.28;;;;;;;-142.43;100.00;63430.59;4957910;29;20139;-82
2022/02/21 09:16:30;;;;;;;12.15;3.80;;;;;;;-142.43;100.00;63430.59;4957992;29;20090;-81
2022/02/21 09:18:58;;;;;;;11.35;3.50;;;;;;;-142.43;100.00;63430.59;4957266;29;20554;-82
2022/02/21 09:21:26;;;;;;;12.52;3.60;;;;;;;-142.43;100.00;63430.59;4959194;29;20071;-83
2022/02/21 09:23:52;;;;;;;7.88;3.17;;;;;;;-142.43;100.00;63430.59;4962800;29;20086;-83
2022/02/21 09:26:19;;;;;;;12.52;3.25;;;;;;;-142.43;100.00;63430.59;4967355;29;20078;-83
2022/02/21 09:28:46;;;;;;;9.18;3.47;;;;;;;-142.43;100.00;63430.59;4963341;29;20058;-84
2022/02/21 09:31:12;;;;;;;10.50;3.38;;;;;;;-142.43;100.00;63430.59;4966695;29;20043;-82
2022/02/21 09:33:39;;;;;;;12.40;3.65;;;;;;;-142.43;100.00;63430.59;4969201;28;20035;-83
2022/02/21 09:36:07;;;;;;;11.65;3.75;;;;;;;-142.43;100.00;63430.59;4975430;29;20149;-83
2022/02/21 09:38:34;;;;;;;13.70;3.75;;;;;;;-142.43;100.00;63430.59;4972282;29;20046;-84
2022/02/21 09:41:03;;;;;;;12.93;3.60;;;;;;;-142.43;100.00;63430.59;4975202;28;20117;-84
2022/02/21 09:43:30;;;;;;;8.80;3.28;;;;;;;-142.43;100.00;63430.59;4965606;28;20051;-83
2022/02/21 09:45:59;;;;;;;16.55;3.83;;;;;;;-142.43;100.00;63430.59;4962519;28;20082;-82
2022/02/21 09:48:27;;;;;;;15.55;3.47;;;;;;;-142.43;100.00;63430.59;4982230;28;20166;-84
2022/02/21 09:50:58;;;;;;;9.68;3.30;;;;;;;-142.43;100.00;63430.59;4984042;28;20114;-83
2022/02/21 09:53:28;;;;;;;13.75;4.13;;;;;;;-142.43;100.00;63430.59;4981549;28;20095;-84
2022/02/21 09:55:55;;;;;;;9.85;3.10;;;;;;;-142.43;100.00;63430.59;4981031;28;20057;-83
2022/02/21 09:58:22;;;;;;;14.27;3.95;;;;;;;-142.43;100.00;63430.59;4979719;28;20047;-84
2022/02/21 10:00:49;;;;;;;15.50;3.83;;;;;;;-142.43;100.00;63430.59;4981000;28;20505;-84
2022/02/21 10:03:18;;;;;;;19.85;4.05;;;;;;;-142.43;100.00;63430.59;4981990;28;20150;-83
2022/02/21 10:05:48;;;;;;;8.73;3.47;;;;;;;-142.43;100.00;63430.59;4981352;28;20142;-83
2022/02/21 10:08:15;;;;;;;18.17;3.50;;;;;;;-142.43;100.00;63430.59;4980876;28;20485;-83
2022/02/21 10:10:44;;;;;;;11.77;3.38;;;;;;;-142.43;100.00;63430.59;4979805;28;20050;-83
2022/02/21 10:13:10;;;;;;;16.85;4.03;;;;;;;-142.43;100.00;63430.59;4980349;28;20522;-83
2022/02/21 10:15:38;;;;;;;12.55;4.10;;;;;;;-142.43;100.00;63430.59;4980250;28;20130;-83
2022/02/21 10:18:13;;;;;;;9.95;3.58;;;;;;;-142.43;100.00;63430.59;4979422;28;20398;-84
2022/02/21 10:20:53;;;;;;;11.88;3.85;;;;;;;-142.43;100.00;63430.59;4980413;28;20114;-84
2022/02/21 10:23:22;;;;;;;17.55;4.45;;;;;;;-142.43;100.00;63430.59;4980404;28;20114;-83
2022/02/21 10:25:56;;;;;;;12.40;4.05;;;;;;;-142.43;100.00;63430.59;4979495;28;20134;-84
2022/02/21 10:28:27;;;;;;;15.48;3.75;;;;;;;-142.43;100.00;63430.59;4979133;28;20417;-83
2022/02/21 10:31:15;;;;;;;11.02;3.50;;;;;;;-142.43;100.00;63430.59;4978118;28;20115;-83
2022/02/21 10:33:58;;;;;;;14.88;4.63;;;;;;;-142.43;100.00;63430.59;4980121;28;20134;-83
2022/02/21 10:36:29;;;;;;;14.30;3.58;;;;;;;-142.43;100.00;63430.59;4978989;28;20085;-83
2022/02/21 10:38:56;;;;;;;13.57;4.90;;;;;;;-142.43;100.00;63430.59;4978944;28;20484;-82
2022/02/21 10:41:43;;;;;;;19.63;4.75;;;;;;;-142.43;100.00;63430.59;4980260;28;20085;-83
2022/02/21 10:44:17;;;;;;;9.35;3.20;;;;;;;-142.43;100.00;63430.59;4979084;28;20054;-84
2022/02/21 10:46:59;;;;;;;13.68;3.70;;;;;;;-142.43;100.00;63430.59;4979044;28;20086;-83
2022/02/21 10:49:26;;;;;;;19.60;4.53;;;;;;;-142.43;100.00;63430.59;4979273;28;20081;-83
2022/02/21 10:51:55;;;;;;;14.63;3.38;;;;;;;-142.43;100.00;63430.59;4979775;28;20081;-83
2022/02/21 10:54:29;;;;;;;12.73;3.95;;;;;;;-142.43;100.00;63430.59;4980320;28;20058;-84
2022/02/21 10:56:57;;;;;;;13.40;3.95;;;;;;;-142.43;100.00;63430.59;4982119;28;20051;-83
2022/02/21 10:59:28;;;;;;;15.05;3.92;;;;;;;-142.43;100.00;63430.59;4980497;28;20050;-84
2022/02/21 11:01:55;;;;;;;16.08;3.97;;;;;;;-142.43;100.00;63430.59;4980926;28;20081;-84
2022/02/21 11:04:24;;;;;;;17.25;4.63;;;;;;;-142.43;100.00;63430.59;4982053;28;20047;-83
2022/02/21 11:06:51;;;;;;;12.88;4.55;;;;;;;-142.43;100.00;63430.59;4986711;28;20657;-83
2022/02/21 11:09:20;;;;;;;16.48;4.18;;;;;;;-142.43;100.00;63430.59;4996191;28;20030;-85
2022/02/21 11:11:49;;;;;;;17.35;4.70;;;;;;;-142.43;100.00;63430.59;4997207;28;20047;-85